createdAt,value
2017-08-27T00:00:00.282Z,0
2017-08-27T00:00:40.638Z,0
2017-08-27T00:01:21.077Z,0
2017-08-27T00:02:01.521Z,0
2017-08-27T00:02:41.875Z,0
2017-08-27T00:03:22.249Z,0
2017-08-27T00:04:02.644Z,0
2017-08-27T00:04:43.072Z,0
2017-08-27T00:05:23.512Z,0
2017-08-27T00:06:03.924Z,0
2017-08-27T00:06:44.309Z,0
2017-08-27T00:07:24.653Z,0
2017-08-27T00:08:05.048Z,0
2017-08-27T00:08:45.424Z,0
2017-08-27T00:09:25.883Z,0
2017-08-27T00:10:06.301Z,0
2017-08-27T00:10:46.745Z,0
2017-08-27T00:11:27.158Z,0
2017-08-27T00:12:07.564Z,0
2017-08-27T00:12:47.980Z,0
2017-08-27T00:13:28.407Z,0
2017-08-27T00:14:08.896Z,0
2017-08-27T00:14:49.246Z,0
2017-08-27T00:15:29.668Z,0
2017-08-27T00:16:10.133Z,0
2017-08-27T00:16:50.583Z,0
2017-08-27T00:17:30.970Z,0
2017-08-27T00:18:11.369Z,0
2017-08-27T00:18:51.752Z,0
2017-08-27T00:19:32.101Z,0
2017-08-27T00:20:12.537Z,0
2017-08-27T00:20:52.984Z,0
2017-08-27T00:21:33.337Z,0
2017-08-27T00:22:13.759Z,0
2017-08-27T00:22:54.180Z,0
2017-08-27T00:23:34.559Z,0
2017-08-27T00:24:15.002Z,0
2017-08-27T00:24:55.355Z,0
2017-08-27T00:25:35.742Z,0
2017-08-27T00:26:16.213Z,0
2017-08-27T00:26:56.600Z,0
2017-08-27T00:27:36.954Z,0
2017-08-27T00:28:17.382Z,0
2017-08-27T00:28:57.826Z,0
2017-08-27T00:29:38.210Z,0
2017-08-27T00:30:18.562Z,0
2017-08-27T00:30:59.158Z,0
2017-08-27T00:31:39.489Z,0
2017-08-27T00:32:19.926Z,0
2017-08-27T00:33:00.397Z,0
2017-08-27T00:33:40.767Z,0
2017-08-27T00:34:21.140Z,0
2017-08-27T00:35:01.546Z,0
2017-08-27T00:35:41.941Z,0
2017-08-27T00:36:22.446Z,0
2017-08-27T00:37:02.704Z,0
2017-08-27T00:37:43.170Z,0
2017-08-27T00:38:23.521Z,0
2017-08-27T00:39:03.945Z,0
2017-08-27T00:39:44.442Z,0
2017-08-27T00:40:24.808Z,0
2017-08-27T00:41:05.207Z,0
2017-08-27T00:41:45.683Z,0
2017-08-27T00:42:26.079Z,0
2017-08-27T00:43:06.433Z,0
2017-08-27T00:43:46.887Z,0
2017-08-27T00:44:27.230Z,0
2017-08-27T00:45:07.660Z,0
2017-08-27T00:45:48.123Z,0
2017-08-27T00:46:28.584Z,0
2017-08-27T00:47:09.018Z,0
2017-08-27T00:47:49.434Z,0
2017-08-27T00:48:29.901Z,0
2017-08-27T00:49:10.235Z,0
2017-08-27T00:49:50.675Z,0
2017-08-27T00:50:31.134Z,0
2017-08-27T00:51:11.515Z,0
2017-08-27T00:51:51.987Z,0
2017-08-27T00:52:32.358Z,0
2017-08-27T00:53:12.798Z,0
2017-08-27T00:53:53.190Z,0
2017-08-27T00:54:33.648Z,0
2017-08-27T00:55:14.040Z,0
2017-08-27T00:55:54.521Z,0
2017-08-27T00:56:34.906Z,0
2017-08-27T00:57:15.379Z,0
2017-08-27T00:57:55.799Z,0
2017-08-27T00:58:36.178Z,0
2017-08-27T00:59:16.603Z,0
2017-08-27T00:59:56.941Z,0
2017-08-27T01:00:37.370Z,0
2017-08-27T01:01:17.879Z,0
2017-08-27T01:01:58.297Z,0
2017-08-27T01:02:38.691Z,0
2017-08-27T01:03:19.105Z,0
2017-08-27T01:03:59.502Z,0
2017-08-27T01:04:39.842Z,0
2017-08-27T01:05:20.317Z,0
2017-08-27T01:06:00.756Z,0
2017-08-27T01:06:41.221Z,0
2017-08-27T01:07:21.641Z,0
2017-08-27T01:08:02.069Z,0
2017-08-27T01:08:42.466Z,0
2017-08-27T01:09:22.839Z,0
2017-08-27T01:10:03.246Z,0
2017-08-27T01:10:43.734Z,0
2017-08-27T01:11:24.209Z,0
2017-08-27T01:12:04.680Z,0
2017-08-27T01:12:45.058Z,0
2017-08-27T01:13:25.434Z,0
2017-08-27T01:14:05.857Z,0
2017-08-27T01:14:46.321Z,0
2017-08-27T01:15:26.713Z,0
2017-08-27T01:16:07.164Z,0
2017-08-27T01:16:47.536Z,0
2017-08-27T01:17:27.964Z,0
2017-08-27T01:18:08.408Z,0
2017-08-27T01:18:48.919Z,0
2017-08-27T01:19:29.402Z,0
2017-08-27T01:20:09.822Z,0
2017-08-27T01:20:50.244Z,0
2017-08-27T01:21:30.634Z,0
2017-08-27T01:22:11.029Z,0
2017-08-27T01:22:51.471Z,0
2017-08-27T01:23:31.864Z,0
2017-08-27T01:24:12.321Z,0
2017-08-27T01:24:52.677Z,0
2017-08-27T01:25:33.147Z,0
2017-08-27T01:26:13.529Z,0
2017-08-27T01:26:53.902Z,0
2017-08-27T01:27:34.463Z,0
2017-08-27T01:28:14.738Z,0
2017-08-27T01:28:55.221Z,0
2017-08-27T01:29:35.610Z,0
2017-08-27T01:30:15.986Z,0
2017-08-27T01:30:56.403Z,0
2017-08-27T01:31:36.792Z,0
2017-08-27T01:32:17.280Z,0
2017-08-27T01:32:57.686Z,0
2017-08-27T01:33:38.061Z,0
2017-08-27T01:34:18.481Z,0
2017-08-27T01:34:58.828Z,0
2017-08-27T01:35:39.266Z,0
2017-08-27T01:36:19.711Z,0
2017-08-27T01:37:00.097Z,0
2017-08-27T01:37:40.573Z,0
2017-08-27T01:38:20.985Z,0
2017-08-27T01:39:01.392Z,0
2017-08-27T01:39:41.843Z,0
2017-08-27T01:40:22.314Z,0
2017-08-27T01:41:02.682Z,0
2017-08-27T01:41:43.063Z,0
2017-08-27T01:42:23.477Z,0
2017-08-27T01:43:03.872Z,0
2017-08-27T01:43:44.283Z,0
2017-08-27T01:44:24.740Z,0
2017-08-27T01:45:05.211Z,0
2017-08-27T01:45:45.575Z,0
2017-08-27T01:46:26.034Z,0
2017-08-27T01:47:06.431Z,0
2017-08-27T01:47:46.800Z,0
2017-08-27T01:48:27.245Z,0
2017-08-27T01:49:07.654Z,0
2017-08-27T01:49:48.072Z,0
2017-08-27T01:50:28.451Z,0
2017-08-27T01:51:08.883Z,0
2017-08-27T01:51:49.239Z,0
2017-08-27T01:52:29.683Z,0
2017-08-27T01:53:10.002Z,0
2017-08-27T01:53:50.502Z,0
2017-08-27T01:54:31.001Z,0
2017-08-27T01:55:11.391Z,0
2017-08-27T01:55:51.771Z,0
2017-08-27T01:56:32.168Z,0
2017-08-27T01:57:12.601Z,0
2017-08-27T01:57:52.966Z,0
2017-08-27T01:58:33.345Z,0
2017-08-27T01:59:13.785Z,0
2017-08-27T01:59:54.196Z,0
2017-08-27T02:00:34.567Z,0
2017-08-27T02:01:15.009Z,0
2017-08-27T02:01:55.406Z,0
2017-08-27T02:02:35.771Z,0
2017-08-27T02:03:16.205Z,0
2017-08-27T02:03:56.623Z,0
2017-08-27T02:04:36.994Z,0
2017-08-27T02:05:17.381Z,0
2017-08-27T02:05:57.767Z,0
2017-08-27T02:06:38.252Z,0
2017-08-27T02:07:18.616Z,0
2017-08-27T02:07:59.047Z,0
2017-08-27T02:08:39.511Z,0
2017-08-27T02:09:19.932Z,0
2017-08-27T02:10:00.325Z,0
2017-08-27T02:10:40.711Z,0
2017-08-27T02:11:21.130Z,0
2017-08-27T02:12:01.553Z,0
2017-08-27T02:12:41.947Z,0
2017-08-27T02:13:22.420Z,0
2017-08-27T02:14:02.828Z,0
2017-08-27T02:14:43.251Z,0
2017-08-27T02:15:23.613Z,0
2017-08-27T02:16:04.033Z,0
2017-08-27T02:16:44.439Z,0
2017-08-27T02:17:24.881Z,0
2017-08-27T02:18:05.391Z,0
2017-08-27T02:18:45.753Z,0
2017-08-27T02:19:26.142Z,0
2017-08-27T02:20:06.591Z,0
2017-08-27T02:20:47.006Z,0
2017-08-27T02:21:27.446Z,0
2017-08-27T02:22:07.795Z,0
2017-08-27T02:22:48.192Z,0
2017-08-27T02:23:28.609Z,0
2017-08-27T02:24:09.024Z,0
2017-08-27T02:24:49.404Z,0
2017-08-27T02:25:29.875Z,0
2017-08-27T02:26:10.261Z,0
2017-08-27T02:26:50.671Z,0
2017-08-27T02:27:31.069Z,0
2017-08-27T02:28:11.464Z,0
2017-08-27T02:28:51.911Z,0
2017-08-27T02:29:32.288Z,0
2017-08-27T02:30:12.714Z,0
2017-08-27T02:30:53.095Z,0
2017-08-27T02:31:33.479Z,0
2017-08-27T02:32:13.934Z,0
2017-08-27T02:32:54.296Z,0
2017-08-27T02:33:34.687Z,0
2017-08-27T02:34:15.094Z,0
2017-08-27T02:34:55.532Z,0
2017-08-27T02:35:35.937Z,0
2017-08-27T02:36:16.321Z,0
2017-08-27T02:36:56.723Z,0
2017-08-27T02:37:37.034Z,0
2017-08-27T02:38:17.526Z,0
2017-08-27T02:38:58.030Z,0
2017-08-27T02:39:38.362Z,0
2017-08-27T02:40:18.773Z,0
2017-08-27T02:40:59.186Z,0
2017-08-27T02:41:39.640Z,0
2017-08-27T02:42:20.028Z,0
2017-08-27T02:43:00.453Z,0
2017-08-27T02:43:40.843Z,0
2017-08-27T02:44:21.230Z,0
2017-08-27T02:45:01.652Z,0
2017-08-27T02:45:42.082Z,0
2017-08-27T02:46:22.517Z,0
2017-08-27T02:47:02.940Z,0
2017-08-27T02:47:43.386Z,0
2017-08-27T02:50:31.705Z,0
2017-08-27T02:51:11.526Z,0
2017-08-27T02:51:51.918Z,0
2017-08-27T02:52:32.358Z,0
2017-08-27T02:53:12.758Z,0
2017-08-27T02:53:53.159Z,0
2017-08-27T02:54:33.530Z,0
2017-08-27T02:55:13.976Z,0
2017-08-27T02:55:54.545Z,0
2017-08-27T02:56:34.873Z,0
2017-08-27T02:57:15.227Z,0
2017-08-27T02:57:55.673Z,0
2017-08-27T02:58:36.127Z,0
2017-08-27T02:59:16.475Z,0
2017-08-27T02:59:56.898Z,0
2017-08-27T03:00:37.312Z,0
2017-08-27T03:01:17.799Z,0
2017-08-27T03:01:58.210Z,0
2017-08-27T03:02:38.561Z,0
2017-08-27T03:03:19.020Z,0
2017-08-27T03:03:59.405Z,0
2017-08-27T03:04:39.753Z,0
2017-08-27T03:05:20.208Z,0
2017-08-27T03:06:00.562Z,0
2017-08-27T03:06:41.048Z,0
2017-08-27T03:07:21.447Z,0
2017-08-27T03:08:01.827Z,0
2017-08-27T03:08:42.235Z,0
2017-08-27T03:09:22.669Z,0
2017-08-27T03:10:03.089Z,0
2017-08-27T03:10:43.523Z,0
2017-08-27T03:11:23.901Z,0
2017-08-27T03:12:04.281Z,0
2017-08-27T03:12:44.690Z,0
2017-08-27T03:13:25.128Z,0
2017-08-27T03:14:05.532Z,0
2017-08-27T03:14:45.857Z,0
2017-08-27T03:15:26.283Z,0
2017-08-27T03:16:06.706Z,0
2017-08-27T03:16:47.124Z,0
2017-08-27T03:17:27.521Z,0
2017-08-27T03:18:07.890Z,0
2017-08-27T03:18:48.295Z,0
2017-08-27T03:19:28.776Z,0
2017-08-27T03:20:09.148Z,0
2017-08-27T03:20:49.569Z,0
2017-08-27T03:21:30.097Z,0
2017-08-27T03:22:10.539Z,0
2017-08-27T03:22:50.932Z,0
2017-08-27T03:23:31.327Z,0
2017-08-27T03:24:11.701Z,0
2017-08-27T03:24:52.088Z,0
2017-08-27T03:25:32.518Z,0
2017-08-27T03:26:12.869Z,0
2017-08-27T03:26:53.367Z,0
2017-08-27T03:27:33.762Z,0
2017-08-27T03:28:14.164Z,0
2017-08-27T03:28:54.618Z,0
2017-08-27T03:29:35.000Z,0
2017-08-27T03:30:15.366Z,0
2017-08-27T03:30:55.813Z,0
2017-08-27T03:31:36.167Z,0
2017-08-27T03:32:16.568Z,0
2017-08-27T03:32:57.050Z,0
2017-08-27T03:33:37.432Z,0
2017-08-27T03:34:17.823Z,0
2017-08-27T03:34:58.243Z,0
2017-08-27T03:35:38.603Z,0
2017-08-27T03:36:19.083Z,0
2017-08-27T03:36:59.434Z,0
2017-08-27T03:37:39.876Z,0
2017-08-27T03:38:20.256Z,0
2017-08-27T03:39:00.619Z,0
2017-08-27T03:39:41.100Z,0
2017-08-27T03:40:21.497Z,0
2017-08-27T03:41:01.888Z,0
2017-08-27T03:41:42.329Z,0
2017-08-27T03:42:22.728Z,0
2017-08-27T03:43:03.121Z,0
2017-08-27T03:43:43.561Z,0
2017-08-27T03:44:23.986Z,0
2017-08-27T03:45:04.277Z,0
2017-08-27T03:45:44.713Z,0
2017-08-27T03:46:25.101Z,0
2017-08-27T03:47:05.473Z,0
2017-08-27T03:47:45.927Z,0
2017-08-27T03:48:26.325Z,0
2017-08-27T03:49:06.730Z,0
2017-08-27T03:49:47.139Z,0
2017-08-27T03:50:27.486Z,0
2017-08-27T03:51:07.957Z,0
2017-08-27T03:51:48.322Z,0
2017-08-27T03:52:28.712Z,0
2017-08-27T03:53:09.171Z,0
2017-08-27T03:53:49.597Z,0
2017-08-27T03:54:30.008Z,0
2017-08-27T03:55:10.374Z,0
2017-08-27T03:55:50.772Z,0
2017-08-27T03:56:31.146Z,0
2017-08-27T03:57:11.563Z,0
2017-08-27T03:57:52.001Z,0
2017-08-27T03:58:32.325Z,0
2017-08-27T03:59:12.769Z,0
2017-08-27T03:59:53.168Z,0
2017-08-27T04:00:33.574Z,0
2017-08-27T04:01:14.001Z,0
2017-08-27T04:01:54.433Z,0
2017-08-27T04:02:34.804Z,0
2017-08-27T04:03:15.165Z,0
2017-08-27T04:03:55.649Z,0
2017-08-27T04:04:36.049Z,0
2017-08-27T04:05:16.367Z,0
2017-08-27T04:05:56.807Z,0
2017-08-27T04:06:37.251Z,0
2017-08-27T04:07:17.608Z,0
2017-08-27T04:07:58.036Z,0
2017-08-27T04:08:38.459Z,0
2017-08-27T04:09:18.827Z,0
2017-08-27T04:09:59.240Z,0
2017-08-27T04:10:39.659Z,0
2017-08-27T04:11:20.090Z,0
2017-08-27T04:12:00.474Z,0
2017-08-27T04:12:40.882Z,0
2017-08-27T04:13:21.336Z,0
2017-08-27T04:14:02.141Z,0
2017-08-27T04:14:42.039Z,0
2017-08-27T04:15:22.496Z,0
2017-08-27T04:16:02.908Z,0
2017-08-27T04:16:43.377Z,0
2017-08-27T04:17:23.756Z,0
2017-08-27T04:18:04.206Z,0
2017-08-27T04:18:44.566Z,0
2017-08-27T04:19:24.994Z,0
2017-08-27T04:20:05.456Z,0
2017-08-27T04:20:45.803Z,0
2017-08-27T04:21:26.229Z,0
2017-08-27T04:22:06.671Z,0
2017-08-27T04:22:47.039Z,0
2017-08-27T04:23:27.448Z,0
2017-08-27T04:24:07.883Z,0
2017-08-27T04:24:48.260Z,0
2017-08-27T04:25:28.710Z,0
2017-08-27T04:26:09.164Z,0
2017-08-27T04:26:49.587Z,0
2017-08-27T04:27:29.973Z,0
2017-08-27T04:28:10.379Z,0
2017-08-27T04:28:50.735Z,0
2017-08-27T04:29:31.215Z,0
2017-08-27T04:30:11.575Z,0
2017-08-27T04:30:52.001Z,0
2017-08-27T04:31:32.412Z,0
2017-08-27T04:32:12.771Z,0
2017-08-27T04:32:53.209Z,0
2017-08-27T04:33:33.615Z,0
2017-08-27T04:34:14.090Z,0
2017-08-27T04:34:54.515Z,0
2017-08-27T04:35:34.889Z,0
2017-08-27T04:36:15.248Z,0
2017-08-27T04:36:55.682Z,0
2017-08-27T04:37:36.069Z,0
2017-08-27T04:38:16.442Z,0
2017-08-27T04:38:56.867Z,0
2017-08-27T04:39:37.255Z,0
2017-08-27T04:40:17.692Z,0
2017-08-27T04:40:58.025Z,0
2017-08-27T04:41:38.451Z,0
2017-08-27T04:42:18.820Z,0
2017-08-27T04:42:59.227Z,0
2017-08-27T04:43:39.751Z,0
2017-08-27T04:44:20.136Z,0
2017-08-27T04:45:00.516Z,0
2017-08-27T04:45:40.956Z,0
2017-08-27T04:46:21.399Z,0
2017-08-27T04:47:01.755Z,0
2017-08-27T04:47:42.227Z,0
2017-08-27T04:48:22.678Z,0
2017-08-27T04:49:03.156Z,0
2017-08-27T04:49:43.536Z,0
2017-08-27T04:50:23.982Z,0
2017-08-27T04:51:04.446Z,0
2017-08-27T04:51:44.787Z,0
2017-08-27T04:52:25.250Z,0
2017-08-27T04:53:05.651Z,0
2017-08-27T04:53:46.092Z,0
2017-08-27T04:54:26.481Z,0
2017-08-27T04:55:06.922Z,0
2017-08-27T04:55:47.370Z,0
2017-08-27T04:56:27.852Z,0
2017-08-27T04:57:08.178Z,0
2017-08-27T04:57:48.661Z,0
2017-08-27T04:58:29.223Z,0
2017-08-27T04:59:09.614Z,0
2017-08-27T04:59:50.105Z,0
2017-08-27T05:00:30.541Z,0
2017-08-27T05:01:10.946Z,0
2017-08-27T05:01:51.396Z,0
2017-08-27T05:02:31.910Z,0
2017-08-27T05:03:12.362Z,0
2017-08-27T05:03:52.782Z,0
2017-08-27T05:04:33.226Z,0
2017-08-27T05:05:13.560Z,0
2017-08-27T05:05:53.967Z,0
2017-08-27T05:06:34.359Z,0
2017-08-27T05:07:14.835Z,0
2017-08-27T05:07:55.339Z,0
2017-08-27T05:08:35.753Z,0
2017-08-27T05:09:16.140Z,0
2017-08-27T05:09:56.544Z,0
2017-08-27T05:10:36.998Z,0
2017-08-27T05:11:17.422Z,0
2017-08-27T05:11:57.828Z,0
2017-08-27T05:12:38.175Z,0
2017-08-27T05:13:18.607Z,0
2017-08-27T05:13:59.030Z,5
2017-08-27T05:14:39.469Z,5
2017-08-27T05:15:19.843Z,5
2017-08-27T05:16:00.192Z,5
2017-08-27T05:16:40.700Z,5
2017-08-27T05:17:21.158Z,5
2017-08-27T05:18:01.565Z,5
2017-08-27T05:20:24.488Z,5
2017-08-27T05:21:04.957Z,5
2017-08-27T05:21:45.326Z,5
2017-08-27T05:22:25.785Z,5
2017-08-27T05:23:06.115Z,5
2017-08-27T05:23:46.500Z,5
2017-08-27T05:24:26.955Z,5
2017-08-27T05:25:07.375Z,5
2017-08-27T05:25:47.775Z,5
2017-08-27T05:26:28.237Z,5
2017-08-27T05:27:08.615Z,5
2017-08-27T05:27:49.008Z,5
2017-08-27T05:28:29.407Z,5
2017-08-27T05:33:18.989Z,5
2017-08-27T05:34:20.810Z,5
2017-08-27T05:35:21.680Z,5
2017-08-27T05:36:17.223Z,5
2017-08-27T05:36:57.507Z,5
2017-08-27T05:37:37.932Z,5
2017-08-27T05:38:18.308Z,5
2017-08-27T05:38:58.699Z,5
2017-08-27T05:39:39.121Z,5
2017-08-27T05:40:19.565Z,5
2017-08-27T05:40:59.941Z,5
2017-08-27T05:41:40.362Z,5
2017-08-27T05:42:20.876Z,5
2017-08-27T05:43:01.207Z,5
2017-08-27T05:43:41.842Z,5
2017-08-27T05:44:22.285Z,5
2017-08-27T05:45:02.699Z,10
2017-08-27T05:45:43.085Z,10
2017-08-27T05:46:23.460Z,10
2017-08-27T05:52:20.167Z,15
2017-08-27T05:53:11.305Z,20
2017-08-27T05:53:51.764Z,20
2017-08-27T05:54:32.103Z,20
2017-08-27T05:55:12.546Z,25
2017-08-27T05:55:52.963Z,25
2017-08-27T05:56:33.313Z,25
2017-08-27T05:57:13.771Z,25
2017-08-27T05:57:54.131Z,25
2017-08-27T05:58:34.478Z,25
2017-08-27T05:59:14.946Z,30
2017-08-27T05:59:55.321Z,30
2017-08-27T06:00:35.734Z,30
2017-08-27T06:01:16.134Z,30
2017-08-27T06:01:56.587Z,35
2017-08-27T06:02:36.949Z,35
2017-08-27T06:03:17.363Z,35
2017-08-27T06:03:57.744Z,35
2017-08-27T06:04:38.158Z,40
2017-08-27T06:05:18.566Z,35
2017-08-27T06:05:58.945Z,40
2017-08-27T06:06:39.394Z,40
2017-08-27T06:07:19.748Z,40
2017-08-27T06:08:00.146Z,40
2017-08-27T06:08:40.556Z,40
2017-08-27T06:09:20.981Z,40
2017-08-27T06:10:01.396Z,50
2017-08-27T06:10:41.766Z,50
2017-08-27T06:11:22.158Z,50
2017-08-27T06:12:02.668Z,60
2017-08-27T06:12:43.031Z,60
2017-08-27T06:13:23.427Z,70
2017-08-27T06:14:03.879Z,65
2017-08-27T06:14:44.473Z,75
2017-08-27T06:15:24.921Z,70
2017-08-27T06:16:05.314Z,65
2017-08-27T06:16:45.845Z,65
2017-08-27T06:17:26.221Z,70
2017-08-27T06:18:06.714Z,80
2017-08-27T06:18:47.056Z,90
2017-08-27T06:19:27.550Z,95
2017-08-27T06:20:07.931Z,105
2017-08-27T06:20:48.354Z,120
2017-08-27T06:21:28.756Z,110
2017-08-27T06:22:09.202Z,125
2017-08-27T06:22:49.605Z,130
2017-08-27T06:23:30.094Z,140
2017-08-27T06:24:10.542Z,140
2017-08-27T06:24:50.977Z,135
2017-08-27T06:27:23.415Z,140
2017-08-27T06:28:03.804Z,135
2017-08-27T06:28:44.199Z,125
2017-08-27T06:29:24.769Z,120
2017-08-27T06:30:05.139Z,115
2017-08-27T06:30:45.548Z,130
2017-08-27T06:31:25.951Z,135
2017-08-27T06:32:06.363Z,140
2017-08-27T06:32:46.763Z,145
2017-08-27T06:33:27.199Z,150
2017-08-27T06:34:07.676Z,150
2017-08-27T06:34:48.184Z,150
2017-08-27T06:35:28.618Z,145
2017-08-27T06:36:09.020Z,140
2017-08-27T06:36:49.384Z,130
2017-08-27T06:37:29.849Z,125
2017-08-27T06:38:10.248Z,130
2017-08-27T06:38:50.697Z,130
2017-08-27T06:39:31.103Z,140
2017-08-27T06:40:11.583Z,140
2017-08-27T06:40:52.009Z,140
2017-08-27T06:41:32.433Z,145
2017-08-27T06:42:12.849Z,125
2017-08-27T06:42:53.258Z,110
2017-08-27T06:43:33.710Z,90
2017-08-27T06:44:14.128Z,55
2017-08-27T06:44:54.540Z,50
2017-08-27T06:45:34.913Z,45
2017-08-27T06:46:15.426Z,40
2017-08-27T06:46:55.785Z,35
2017-08-27T06:47:36.145Z,35
2017-08-27T06:48:16.573Z,35
2017-08-27T06:48:57.000Z,35
2017-08-27T06:49:37.468Z,35
2017-08-27T06:50:17.817Z,35
2017-08-27T06:50:58.281Z,35
2017-08-27T06:51:38.683Z,30
2017-08-27T06:52:19.113Z,30
2017-08-27T06:52:59.513Z,30
2017-08-27T06:53:40.022Z,35
2017-08-27T06:54:20.358Z,35
2017-08-27T06:55:00.814Z,35
2017-08-27T06:55:41.189Z,40
2017-08-27T06:56:21.622Z,40
2017-08-27T06:57:01.994Z,45
2017-08-27T06:57:42.418Z,50
2017-08-27T06:58:22.788Z,50
2017-08-27T06:59:03.204Z,55
2017-08-27T06:59:43.583Z,60
2017-08-27T07:00:24.001Z,65
2017-08-27T07:01:04.484Z,65
2017-08-27T07:01:44.875Z,65
2017-08-27T07:02:25.340Z,65
2017-08-27T07:03:05.636Z,70
2017-08-27T07:03:46.027Z,85
2017-08-27T07:04:26.465Z,75
2017-08-27T07:05:06.912Z,75
2017-08-27T07:05:47.344Z,80
2017-08-27T07:06:27.764Z,95
2017-08-27T07:07:08.205Z,95
2017-08-27T07:07:48.540Z,110
2017-08-27T07:08:29.032Z,110
2017-08-27T07:09:09.516Z,105
2017-08-27T07:09:49.888Z,105
2017-08-27T07:10:30.258Z,100
2017-08-27T07:11:10.694Z,100
2017-08-27T07:11:51.172Z,105
2017-08-27T07:12:31.546Z,105
2017-08-27T07:13:11.938Z,120
2017-08-27T07:13:52.357Z,105
2017-08-27T07:14:32.800Z,105
2017-08-27T07:15:13.250Z,95
2017-08-27T07:15:53.616Z,95
2017-08-27T07:16:34.059Z,100
2017-08-27T07:17:14.411Z,100
2017-08-27T07:17:54.928Z,105
2017-08-27T07:18:35.342Z,105
2017-08-27T07:19:15.759Z,115
2017-08-27T07:19:56.176Z,135
2017-08-27T07:20:36.708Z,140
2017-08-27T07:21:17.115Z,150
2017-08-27T07:21:57.630Z,160
2017-08-27T07:22:38.030Z,165
2017-08-27T07:23:18.479Z,170
2017-08-27T07:23:58.893Z,170
2017-08-27T07:24:39.225Z,175
2017-08-27T07:25:19.775Z,180
2017-08-27T07:26:00.170Z,180
2017-08-27T07:26:40.598Z,180
2017-08-27T07:27:20.962Z,180
2017-08-27T07:28:01.435Z,175
2017-08-27T07:28:41.890Z,170
2017-08-27T07:29:22.329Z,170
2017-08-27T07:30:02.746Z,170
2017-08-27T07:30:43.213Z,170
2017-08-27T07:31:23.603Z,170
2017-08-27T07:32:04.084Z,160
2017-08-27T07:32:44.538Z,155
2017-08-27T07:33:25.082Z,150
2017-08-27T07:34:05.474Z,145
2017-08-27T07:34:45.845Z,135
2017-08-27T07:35:26.310Z,130
2017-08-27T07:36:06.692Z,120
2017-08-27T07:36:47.124Z,110
2017-08-27T07:37:27.552Z,100
2017-08-27T07:38:07.923Z,95
2017-08-27T07:38:48.308Z,85
2017-08-27T07:39:28.762Z,75
2017-08-27T07:40:09.165Z,70
2017-08-27T07:40:49.628Z,70
2017-08-27T07:41:30.111Z,65
2017-08-27T07:42:10.509Z,65
2017-08-27T07:42:50.946Z,60
2017-08-27T07:43:31.411Z,60
2017-08-27T07:44:11.755Z,60
2017-08-27T07:44:52.202Z,60
2017-08-27T07:45:32.655Z,60
2017-08-27T07:46:13.143Z,60
2017-08-27T07:46:53.586Z,60
2017-08-27T07:47:34.201Z,55
2017-08-27T07:48:14.555Z,55
2017-08-27T07:48:54.967Z,55
2017-08-27T07:49:35.502Z,55
2017-08-27T07:50:15.831Z,55
2017-08-27T07:50:56.224Z,55
2017-08-27T07:51:36.673Z,60
2017-08-27T07:52:17.073Z,60
2017-08-27T07:52:57.478Z,65
2017-08-27T07:53:37.881Z,70
2017-08-27T07:54:18.316Z,75
2017-08-27T07:54:58.802Z,80
2017-08-27T07:55:39.227Z,90
2017-08-27T07:56:19.689Z,100
2017-08-27T07:57:00.119Z,95
2017-08-27T07:57:40.518Z,100
2017-08-27T07:58:20.954Z,100
2017-08-27T07:59:01.413Z,95
2017-08-27T07:59:41.862Z,90
2017-08-27T08:00:22.211Z,100
2017-08-27T08:01:02.613Z,100
2017-08-27T08:01:43.091Z,125
2017-08-27T08:02:23.443Z,125
2017-08-27T08:03:10.724Z,130
2017-08-27T08:03:51.093Z,135
2017-08-27T08:04:31.708Z,140
2017-08-27T08:05:12.110Z,145
2017-08-27T08:05:52.494Z,145
2017-08-27T08:06:32.971Z,145
2017-08-27T08:07:13.334Z,145
2017-08-27T08:07:53.791Z,150
2017-08-27T08:08:34.208Z,155
2017-08-27T08:09:14.544Z,165
2017-08-27T08:09:55.023Z,170
2017-08-27T08:10:35.441Z,170
2017-08-27T08:11:15.876Z,170
2017-08-27T08:11:56.694Z,170
2017-08-27T08:12:37.217Z,170
2017-08-27T08:13:17.607Z,165
2017-08-27T08:13:58.134Z,165
2017-08-27T08:14:38.435Z,165
2017-08-27T08:15:18.880Z,165
2017-08-27T08:15:59.416Z,165
2017-08-27T08:16:39.944Z,160
2017-08-27T08:17:20.323Z,155
2017-08-27T08:18:00.697Z,155
2017-08-27T08:18:41.101Z,145
2017-08-27T08:19:21.647Z,140
2017-08-27T08:20:02.064Z,145
2017-08-27T08:20:42.520Z,145
2017-08-27T08:21:22.956Z,140
2017-08-27T08:22:03.419Z,140
2017-08-27T08:22:43.748Z,145
2017-08-27T08:23:24.183Z,140
2017-08-27T08:24:04.604Z,135
2017-08-27T08:24:45.009Z,125
2017-08-27T08:25:25.503Z,120
2017-08-27T08:26:05.893Z,115
2017-08-27T08:26:46.349Z,105
2017-08-27T08:27:26.749Z,95
2017-08-27T08:28:07.329Z,90
2017-08-27T08:28:47.670Z,85
2017-08-27T08:29:28.085Z,80
2017-08-27T08:30:08.576Z,80
2017-08-27T08:30:49.013Z,80
2017-08-27T08:31:29.387Z,85
2017-08-27T08:32:09.731Z,95
2017-08-27T08:32:50.181Z,100
2017-08-27T08:33:30.628Z,100
2017-08-27T08:34:10.976Z,110
2017-08-27T08:34:51.407Z,115
2017-08-27T08:35:31.890Z,115
2017-08-27T08:36:12.288Z,115
2017-08-27T08:36:52.696Z,120
2017-08-27T08:37:33.130Z,120
2017-08-27T08:38:13.547Z,125
2017-08-27T08:38:54.011Z,125
2017-08-27T08:39:34.440Z,125
2017-08-27T08:40:14.892Z,135
2017-08-27T08:40:55.249Z,130
2017-08-27T08:41:35.676Z,140
2017-08-27T08:42:16.016Z,140
2017-08-27T08:42:56.580Z,140
2017-08-27T08:43:37.035Z,145
2017-08-27T08:44:17.380Z,145
2017-08-27T08:44:57.781Z,145
2017-08-27T08:45:38.482Z,150
2017-08-27T08:46:18.657Z,150
2017-08-27T08:46:59.054Z,155
2017-08-27T08:47:39.425Z,155
2017-08-27T08:48:20.007Z,150
2017-08-27T08:49:00.354Z,150
2017-08-27T08:49:40.868Z,150
2017-08-27T08:50:21.306Z,150
2017-08-27T08:51:01.714Z,150
2017-08-27T08:51:42.141Z,150
2017-08-27T08:52:22.690Z,150
2017-08-27T08:53:03.156Z,150
2017-08-27T08:53:43.630Z,150
2017-08-27T08:54:23.956Z,150
2017-08-27T08:55:04.337Z,150
2017-08-27T08:55:44.765Z,150
2017-08-27T08:56:25.242Z,150
2017-08-27T08:57:05.650Z,150
2017-08-27T08:57:46.106Z,150
2017-08-27T08:58:26.537Z,150
2017-08-27T08:59:06.876Z,150
2017-08-27T08:59:47.233Z,150
2017-08-27T09:00:27.783Z,150
2017-08-27T09:01:08.243Z,150
2017-08-27T09:01:48.693Z,145
2017-08-27T09:02:29.086Z,145
2017-08-27T09:03:09.480Z,145
2017-08-27T09:03:49.879Z,145
2017-08-27T09:04:30.308Z,140
2017-08-27T09:05:10.715Z,140
2017-08-27T09:05:51.169Z,140
2017-08-27T09:06:31.570Z,140
2017-08-27T09:07:12.040Z,140
2017-08-27T09:07:52.415Z,140
2017-08-27T09:08:32.865Z,140
2017-08-27T09:09:13.279Z,140
2017-08-27T09:09:53.796Z,135
2017-08-27T09:10:34.300Z,135
2017-08-27T09:11:14.705Z,135
2017-08-27T09:11:55.048Z,135
2017-08-27T09:12:35.444Z,140
2017-08-27T09:13:15.888Z,145
2017-08-27T09:13:56.313Z,140
2017-08-27T09:14:37.074Z,140
2017-08-27T09:15:17.438Z,140
2017-08-27T09:15:57.901Z,140
2017-08-27T09:16:38.358Z,140
2017-08-27T09:17:18.791Z,140
2017-08-27T09:17:59.225Z,140
2017-08-27T09:18:39.666Z,140
2017-08-27T09:19:20.128Z,140
2017-08-27T09:20:00.478Z,145
2017-08-27T09:20:40.881Z,145
2017-08-27T09:21:21.323Z,140
2017-08-27T09:22:01.655Z,135
2017-08-27T09:22:42.210Z,135
2017-08-27T09:23:22.608Z,115
2017-08-27T09:24:03.253Z,110
2017-08-27T09:24:43.537Z,110
2017-08-27T09:25:23.941Z,110
2017-08-27T09:26:04.365Z,120
2017-08-27T09:26:44.851Z,125
2017-08-27T09:27:25.277Z,135
2017-08-27T09:28:05.813Z,145
2017-08-27T09:28:46.386Z,150
2017-08-27T09:29:26.755Z,155
2017-08-27T09:30:07.157Z,150
2017-08-27T09:30:47.608Z,135
2017-08-27T09:31:28.000Z,125
2017-08-27T09:32:08.438Z,115
2017-08-27T09:32:48.814Z,110
2017-08-27T09:33:29.239Z,100
2017-08-27T09:34:09.679Z,95
2017-08-27T09:34:50.065Z,85
2017-08-27T09:35:30.514Z,80
2017-08-27T09:36:10.925Z,75
2017-08-27T09:36:51.300Z,70
2017-08-27T09:37:31.728Z,70
2017-08-27T09:38:12.149Z,70
2017-08-27T09:38:52.596Z,75
2017-08-27T09:39:33.018Z,70
2017-08-27T09:40:13.408Z,70
2017-08-27T09:40:53.846Z,70
2017-08-27T09:41:34.301Z,70
2017-08-27T09:42:14.750Z,70
2017-08-27T09:42:55.112Z,65
2017-08-27T09:43:35.510Z,65
2017-08-27T09:44:16.047Z,65
2017-08-27T09:44:56.523Z,65
2017-08-27T09:45:37.159Z,65
2017-08-27T09:46:17.608Z,70
2017-08-27T09:46:58.038Z,70
2017-08-27T09:47:38.420Z,75
2017-08-27T09:48:18.888Z,85
2017-08-27T09:48:59.333Z,85
2017-08-27T09:49:39.783Z,95
2017-08-27T09:50:20.144Z,90
2017-08-27T09:51:00.591Z,90
2017-08-27T09:51:41.046Z,85
2017-08-27T09:52:21.416Z,85
2017-08-27T09:53:02.023Z,85
2017-08-27T09:53:42.360Z,85
2017-08-27T09:54:22.723Z,85
2017-08-27T09:55:03.181Z,85
2017-08-27T09:55:43.691Z,85
2017-08-27T09:56:24.107Z,85
2017-08-27T09:57:04.500Z,85
2017-08-27T09:57:44.910Z,85
2017-08-27T09:58:25.257Z,90
2017-08-27T09:59:05.768Z,90